createdAt,value
2022-09-01T00:00:12.448Z,15.56
2022-09-01T00:01:16.024Z,15.56
2022-09-01T00:02:19.540Z,15.50
2022-09-01T00:03:56.047Z,15.50
2022-09-01T00:05:00.022Z,15.44
2022-09-01T00:06:03.612Z,15.50
2022-09-01T00:07:39.553Z,15.44
2022-09-01T00:08:43.052Z,15.44
2022-09-01T00:09:46.514Z,15.44
2022-09-01T00:11:22.215Z,15.31
2022-09-01T00:12:31.500Z,15.31
2022-09-01T00:13:35.070Z,15.31
2022-09-01T00:15:22.333Z,15.31
2022-09-01T00:16:26.375Z,15.31
2022-09-01T00:17:32.505Z,15.25
2022-09-01T00:19:08.194Z,15.25
2022-09-01T00:20:11.783Z,15.25
2022-09-01T00:21:18.755Z,15.31
2022-09-01T00:22:54.586Z,15.25
2022-09-01T00:23:58.169Z,15.25
2022-09-01T00:25:01.873Z,15.25
2022-09-01T00:26:37.605Z,15.19
2022-09-01T00:27:41.174Z,15.19
2022-09-01T00:28:44.732Z,15.19
2022-09-01T00:30:24.661Z,15.19
2022-09-01T00:31:30.185Z,15.19
2022-09-01T00:32:33.818Z,15.19
2022-09-01T00:34:09.750Z,15.19
2022-09-01T00:35:13.428Z,15.19
2022-09-01T00:36:18.272Z,15.19
2022-09-01T00:37:54.097Z,15.13
2022-09-01T00:38:59.389Z,15.13
2022-09-01T00:40:02.990Z,15.13
2022-09-01T00:41:39.371Z,15.06
2022-09-01T00:42:42.903Z,15.06
2022-09-01T00:43:46.439Z,15.00
2022-09-01T00:45:23.144Z,14.94
2022-09-01T00:46:29.772Z,14.94
2022-09-01T00:47:47.894Z,14.94
2022-09-01T00:49:31.371Z,14.88
2022-09-01T00:50:38.750Z,14.88
2022-09-01T00:51:47.327Z,14.88
2022-09-01T00:53:23.160Z,14.88
2022-09-01T00:54:26.785Z,14.88
2022-09-01T00:55:30.265Z,14.81
2022-09-01T00:57:08.335Z,14.81
2022-09-01T00:58:19.430Z,14.88
2022-09-01T00:59:23.701Z,14.94
2022-09-01T01:00:12.073Z,14.94
2022-09-01T01:01:17.010Z,14.94
2022-09-01T01:02:22.250Z,14.94
2022-09-01T01:03:58.494Z,14.88
2022-09-01T01:05:02.018Z,14.88
2022-09-01T01:06:08.359Z,14.88
2022-09-01T01:07:49.364Z,14.81
2022-09-01T01:08:53.071Z,14.81
2022-09-01T01:09:56.605Z,14.81
2022-09-01T01:11:32.369Z,14.81
2022-09-01T01:12:35.953Z,14.75
2022-09-01T01:13:39.451Z,14.75
2022-09-01T01:15:15.134Z,14.69
2022-09-01T01:16:18.644Z,14.69
2022-09-01T01:17:22.596Z,14.69
2022-09-01T01:19:04.456Z,14.75
2022-09-01T01:20:13.783Z,14.75
2022-09-01T01:21:17.472Z,14.75
2022-09-01T01:22:53.181Z,14.81
2022-09-01T01:23:56.827Z,14.75
2022-09-01T01:25:00.341Z,14.75
2022-09-01T01:26:37.602Z,14.75
2022-09-01T01:27:42.870Z,14.75
2022-09-01T01:28:46.940Z,14.75
2022-09-01T01:30:25.758Z,14.75
2022-09-01T01:31:29.822Z,14.75
2022-09-01T01:32:33.310Z,14.75
2022-09-01T01:34:10.730Z,14.75
2022-09-01T01:35:14.189Z,14.75
2022-09-01T01:36:17.704Z,14.75
2022-09-01T01:37:53.322Z,14.75
2022-09-01T01:38:57.064Z,14.69
2022-09-01T01:40:00.829Z,14.69
2022-09-01T01:41:37.454Z,14.69
2022-09-01T01:42:41.133Z,14.63
2022-09-01T01:43:44.589Z,14.63
2022-09-01T01:45:20.658Z,14.63
2022-09-01T01:46:24.457Z,14.63
2022-09-01T01:47:28.093Z,14.63
2022-09-01T01:49:03.787Z,14.63
2022-09-01T01:50:07.293Z,14.63
2022-09-01T01:51:11.071Z,14.56
2022-09-01T01:52:48.904Z,14.50
2022-09-01T01:54:03.870Z,14.44
2022-09-01T01:55:07.701Z,14.44
2022-09-01T01:56:43.314Z,14.44
2022-09-01T01:57:46.899Z,14.44
2022-09-01T01:58:51.958Z,14.44
2022-09-01T02:00:12.964Z,14.50
2022-09-01T02:01:24.996Z,14.44
2022-09-01T02:02:29.227Z,14.44
2022-09-01T02:04:05.942Z,14.38
2022-09-01T02:05:09.540Z,14.38
2022-09-01T02:06:13.526Z,14.38
2022-09-01T02:07:49.218Z,14.31
2022-09-01T02:08:52.986Z,14.31
2022-09-01T02:09:56.546Z,14.31
2022-09-01T02:11:32.179Z,14.31
2022-09-01T02:12:35.789Z,14.25
2022-09-01T02:13:39.419Z,14.25
2022-09-01T02:15:15.390Z,14.25
2022-09-01T02:16:18.983Z,14.19
2022-09-01T02:17:23.320Z,14.19
2022-09-01T02:18:59.066Z,14.19
2022-09-01T02:20:02.608Z,14.19
2022-09-01T02:21:06.145Z,14.19
2022-09-01T02:22:47.855Z,14.13
2022-09-01T02:23:51.616Z,14.13
2022-09-01T02:24:55.130Z,14.13
2022-09-01T02:27:01.842Z,14.13
2022-09-01T02:28:05.696Z,14.13
2022-09-01T02:29:09.314Z,14.19
2022-09-01T02:30:53.096Z,14.13
2022-09-01T02:31:57.818Z,14.13
2022-09-01T02:33:01.380Z,14.06
2022-09-01T02:34:37.131Z,14.00
2022-09-01T02:35:40.853Z,14.00
2022-09-01T02:36:44.584Z,14.00
2022-09-01T02:38:20.483Z,14.00
2022-09-01T02:39:28.417Z,13.94
2022-09-01T02:40:32.035Z,14.00
2022-09-01T02:42:08.020Z,13.94
2022-09-01T02:43:11.550Z,13.94
2022-09-01T02:44:15.058Z,14.00
2022-09-01T02:45:54.478Z,13.94
2022-09-01T02:46:59.805Z,14.00
2022-09-01T02:48:05.213Z,14.00
2022-09-01T02:49:43.485Z,14.00
2022-09-01T02:50:47.071Z,14.00
2022-09-01T02:51:50.661Z,13.94
2022-09-01T02:53:26.420Z,13.94
2022-09-01T02:54:30.102Z,13.94
2022-09-01T02:55:33.658Z,13.94
2022-09-01T02:57:11.859Z,13.94
2022-09-01T02:58:16.665Z,13.94
2022-09-01T02:59:23.489Z,13.94
2022-09-01T03:00:12.435Z,13.94
2022-09-01T03:01:15.929Z,13.94
2022-09-01T03:02:20.097Z,13.94
2022-09-01T03:03:56.260Z,14.00
2022-09-01T03:05:00.312Z,13.94
2022-09-01T03:06:04.295Z,13.94
2022-09-01T03:07:40.078Z,13.88
2022-09-01T03:08:45.296Z,13.88
2022-09-01T03:09:48.821Z,13.88
2022-09-01T03:11:24.654Z,13.81
2022-09-01T03:12:28.374Z,13.81
2022-09-01T03:13:34.420Z,13.81
2022-09-01T03:15:10.129Z,13.81
2022-09-01T03:16:16.769Z,13.81
2022-09-01T03:17:21.989Z,13.81
2022-09-01T03:18:58.103Z,13.81
2022-09-01T03:20:01.616Z,13.81
2022-09-01T03:21:05.394Z,13.81
2022-09-01T03:22:41.292Z,13.81
2022-09-01T03:23:44.897Z,13.75
2022-09-01T03:24:48.660Z,13.69
2022-09-01T03:26:24.394Z,13.63
2022-09-01T03:27:31.041Z,13.63
2022-09-01T03:28:36.672Z,13.63
2022-09-01T03:30:12.453Z,13.63
2022-09-01T03:31:17.662Z,13.63
2022-09-01T03:32:24.051Z,13.63
2022-09-01T03:33:59.780Z,13.63
2022-09-01T03:35:03.320Z,13.63
2022-09-01T03:36:14.285Z,13.63
2022-09-01T03:37:51.072Z,13.63
2022-09-01T03:38:54.950Z,13.63
2022-09-01T03:40:03.287Z,13.63
2022-09-01T03:41:39.731Z,13.63
2022-09-01T03:42:43.309Z,13.63
2022-09-01T03:43:48.476Z,13.63
2022-09-01T03:45:24.443Z,13.56
2022-09-01T03:46:30.270Z,13.56
2022-09-01T03:47:37.178Z,13.56
2022-09-01T03:49:12.909Z,13.44
2022-09-01T03:50:16.412Z,13.44
2022-09-01T03:51:20.104Z,13.44
2022-09-01T03:52:55.791Z,13.31
2022-09-01T03:53:59.175Z,13.38
2022-09-01T03:55:02.780Z,13.38
2022-09-01T03:56:39.260Z,13.38
2022-09-01T03:57:43.809Z,13.44
2022-09-01T03:58:51.006Z,13.50
2022-09-01T04:00:12.243Z,13.50
2022-09-01T04:01:23.836Z,13.56
2022-09-01T04:02:28.041Z,13.56
2022-09-01T04:04:16.902Z,13.56
2022-09-01T04:05:41.471Z,13.56
2022-09-01T04:06:44.921Z,13.56
2022-09-01T04:07:54.305Z,13.56
2022-09-01T04:09:29.524Z,13.56
2022-09-01T04:10:33.491Z,13.56
2022-09-01T04:11:45.183Z,13.56
2022-09-01T04:13:23.080Z,13.56
2022-09-01T04:14:26.391Z,13.56
2022-09-01T04:15:32.521Z,13.56
2022-09-01T04:17:08.039Z,13.50
2022-09-01T04:18:16.851Z,13.50
2022-09-01T04:19:20.656Z,13.50
2022-09-01T04:21:01.602Z,13.44
2022-09-01T04:22:05.719Z,13.44
2022-09-01T04:23:08.768Z,13.44
2022-09-01T04:24:45.178Z,13.44
2022-09-01T04:25:48.675Z,13.44
2022-09-01T04:26:51.734Z,13.38
2022-09-01T04:28:26.746Z,13.38
2022-09-01T04:29:29.872Z,13.44
2022-09-01T04:30:38.541Z,13.38
2022-09-01T04:32:17.611Z,13.38
2022-09-01T04:33:20.778Z,13.44
2022-09-01T04:34:23.988Z,13.38
2022-09-01T04:35:59.361Z,13.38
2022-09-01T04:37:02.817Z,13.38
2022-09-01T04:38:05.972Z,13.38
2022-09-01T04:39:44.307Z,13.38
2022-09-01T04:40:53.904Z,13.38
2022-09-01T04:41:56.881Z,13.31
2022-09-01T04:43:31.961Z,13.31
2022-09-01T04:44:35.178Z,13.31
2022-09-01T04:45:46.028Z,13.25
2022-09-01T04:47:21.694Z,13.25
2022-09-01T04:48:29.671Z,13.25
2022-09-01T04:49:39.746Z,13.19
2022-09-01T04:51:14.971Z,13.19
2022-09-01T04:52:18.082Z,13.19
2022-09-01T04:53:21.257Z,13.19
2022-09-01T04:54:58.406Z,13.19
2022-09-01T04:56:01.670Z,13.19
2022-09-01T04:57:04.854Z,13.19
2022-09-01T04:58:45.231Z,13.13
2022-09-01T04:59:48.414Z,13.13
2022-09-01T05:00:12.588Z,13.13
2022-09-01T05:01:16.102Z,13.13
2022-09-01T05:02:20.034Z,13.13
2022-09-01T05:03:59.882Z,13.13
2022-09-01T05:05:03.141Z,13.13
2022-09-01T05:06:06.397Z,13.13
2022-09-01T05:07:41.547Z,13.13
2022-09-01T05:08:45.724Z,13.13
2022-09-01T05:09:49.331Z,13.06
2022-09-01T05:11:30.903Z,13.06
2022-09-01T05:12:34.146Z,13.06
2022-09-01T05:13:37.197Z,13.06
2022-09-01T05:15:12.274Z,13.06
2022-09-01T05:16:15.468Z,13.06
2022-09-01T05:17:23.675Z,13.06
2022-09-01T05:18:59.165Z,13.06
2022-09-01T05:20:02.384Z,13.06
2022-09-01T05:21:05.417Z,13.06
2022-09-01T05:22:40.620Z,13.06
2022-09-01T05:23:43.615Z,13.06
2022-09-01T05:24:46.656Z,13.06
2022-09-01T05:26:24.993Z,13.06
2022-09-01T05:27:28.231Z,13.13
2022-09-01T05:28:31.189Z,13.13
2022-09-01T05:30:06.459Z,13.13
2022-09-01T05:31:09.710Z,13.13
2022-09-01T05:32:13.521Z,13.13
2022-09-01T05:33:48.930Z,13.13
2022-09-01T05:34:54.581Z,13.19
2022-09-01T05:36:06.559Z,13.19
2022-09-01T05:37:41.687Z,13.13
2022-09-01T05:38:45.002Z,13.13
2022-09-01T05:39:48.409Z,13.13
2022-09-01T05:41:25.329Z,13.13
2022-09-01T05:42:28.794Z,13.19
2022-09-01T05:43:32.957Z,13.19
2022-09-01T05:45:13.496Z,13.19
2022-09-01T05:46:48.102Z,13.25
2022-09-01T05:48:00.944Z,13.25
2022-09-01T05:49:36.503Z,13.25
2022-09-01T05:50:39.710Z,13.25
2022-09-01T05:51:57.492Z,13.25
2022-09-01T05:53:35.466Z,13.31
2022-09-01T05:54:41.879Z,13.31
2022-09-01T05:55:48.783Z,13.31
2022-09-01T05:57:34.955Z,13.38
2022-09-01T06:00:12.345Z,13.38
2022-09-01T06:01:15.713Z,13.38
2022-09-01T06:02:25.231Z,13.38
2022-09-01T06:04:02.968Z,13.38
2022-09-01T06:05:06.501Z,13.44
2022-09-01T06:06:09.887Z,13.44
2022-09-01T06:08:15.375Z,13.50
2022-09-01T06:09:21.879Z,13.50
2022-09-01T06:10:25.154Z,13.50
2022-09-01T06:12:00.214Z,13.56
2022-09-01T06:13:03.280Z,13.56
2022-09-01T06:14:14.945Z,13.56
2022-09-01T06:15:50.132Z,13.63
2022-09-01T06:16:53.787Z,13.69
2022-09-01T06:17:57.540Z,13.75
2022-09-01T06:19:37.326Z,13.81
2022-09-01T06:20:42.077Z,13.88
2022-09-01T06:21:45.273Z,13.94
2022-09-01T06:23:20.557Z,14.00
2022-09-01T06:24:24.845Z,14.06
2022-09-01T06:25:41.464Z,14.13
2022-09-01T06:27:16.502Z,14.19
2022-09-01T06:28:19.727Z,14.25
2022-09-01T06:29:23.055Z,14.31
2022-09-01T06:31:04.231Z,14.44
2022-09-01T06:32:08.001Z,14.50
2022-09-01T06:33:11.054Z,14.56
2022-09-01T06:34:46.266Z,14.56
2022-09-01T06:35:51.410Z,14.63
2022-09-01T06:36:55.599Z,14.69
2022-09-01T06:38:30.836Z,14.69
2022-09-01T06:39:34.112Z,14.81
2022-09-01T06:40:37.765Z,14.81
2022-09-01T06:42:18.642Z,14.94
2022-09-01T06:43:21.991Z,14.94
2022-09-01T06:44:25.683Z,15.00
2022-09-01T06:46:05.062Z,15.06
2022-09-01T06:47:08.835Z,15.13
2022-09-01T06:48:12.171Z,15.19
2022-09-01T06:49:47.529Z,15.19
2022-09-01T06:51:57.144Z,15.31
2022-09-01T06:55:08.851Z,15.44
2022-09-01T06:56:12.826Z,15.50
2022-09-01T07:00:12.064Z,15.75
2022-09-01T07:01:19.848Z,15.75
2022-09-01T07:02:27.596Z,15.81
2022-09-01T07:44:37.921Z,18.13
2022-09-01T07:46:36.716Z,18.19
2022-09-01T07:49:02.711Z,18.31
2022-09-01T07:52:46.297Z,18.50
2022-09-01T07:53:49.549Z,18.56
2022-09-01T07:54:53.092Z,18.69
2022-09-01T07:56:30.540Z,18.75
2022-09-01T07:57:37.815Z,18.88
2022-09-01T07:58:41.128Z,18.88
2022-09-01T08:00:12.684Z,18.94
2022-09-01T08:01:22.342Z,19.00
2022-09-01T08:02:29.470Z,19.06
2022-09-01T08:04:10.546Z,19.13
2022-09-01T08:05:14.200Z,19.19
2022-09-01T08:06:17.645Z,19.19
2022-09-01T08:08:02.584Z,19.31
2022-09-01T08:09:37.047Z,19.38
2022-09-01T08:10:48.985Z,19.44
2022-09-01T08:13:16.378Z,19.56
2022-09-01T08:14:34.221Z,19.69
2022-09-01T08:16:52.942Z,19.75
2022-09-01T08:19:30.081Z,19.88
2022-09-01T08:20:37.191Z,19.88
2022-09-01T08:21:40.771Z,19.94
2022-09-01T08:23:17.221Z,20.06
2022-09-01T08:24:20.813Z,20.13
2022-09-01T08:25:25.082Z,20.25
2022-09-01T08:27:00.843Z,20.25
2022-09-01T08:28:04.376Z,20.31
2022-09-01T08:29:13.654Z,20.38
2022-09-01T08:30:52.538Z,20.50
2022-09-01T08:32:05.973Z,20.50
2022-09-01T08:33:11.012Z,20.56
2022-09-01T08:34:46.877Z,20.63
2022-09-01T08:35:51.576Z,20.69
2022-09-01T08:37:01.250Z,20.75
2022-09-01T08:38:36.934Z,20.75
2022-09-01T08:39:41.047Z,20.75
2022-09-01T08:40:45.067Z,20.81
2022-09-01T08:42:31.918Z,20.88
2022-09-01T08:43:36.618Z,20.88
2022-09-01T08:44:40.532Z,20.94
2022-09-01T08:46:16.209Z,21.00
2022-09-01T08:47:28.107Z,21.06
2022-09-01T08:50:24.157Z,21.31
2022-09-01T08:52:07.345Z,21.25
2022-09-01T08:53:12.219Z,21.31
2022-09-01T08:54:22.660Z,21.31
2022-09-01T08:56:06.210Z,21.31
2022-09-01T08:57:09.820Z,21.25
2022-09-01T08:58:13.482Z,21.25
2022-09-01T08:59:51.755Z,21.31
2022-09-01T09:00:12.680Z,21.31
2022-09-01T09:01:17.766Z,21.31
2022-09-01T09:02:21.632Z,21.38
2022-09-01T09:03:57.960Z,21.44
2022-09-01T09:05:01.615Z,21.44
2022-09-01T09:06:14.087Z,21.50
2022-09-01T09:07:49.640Z,21.56
2022-09-01T09:09:08.631Z,21.56
2022-09-01T09:10:33.814Z,21.56
2022-09-01T09:12:11.480Z,21.69
2022-09-01T09:13:24.210Z,21.75
2022-09-01T09:14:27.744Z,21.75
2022-09-01T09:16:08.755Z,21.81
2022-09-01T09:17:12.848Z,21.88
2022-09-01T09:18:20.609Z,21.88
2022-09-01T09:20:26.200Z,21.88
2022-09-01T09:21:33.492Z,21.88
2022-09-01T09:22:37.011Z,21.88
2022-09-01T09:24:18.130Z,21.94
2022-09-01T09:25:34.393Z,22.06
2022-09-01T09:26:43.227Z,22.13
2022-09-01T09:28:20.270Z,22.19
2022-09-01T09:29:23.712Z,22.19
2022-09-01T09:30:27.636Z,22.19
2022-09-01T09:32:06.229Z,22.25
2022-09-01T09:34:39.040Z,22.44
2022-09-01T09:35:42.203Z,22.50
2022-09-01T09:37:18.245Z,22.56
2022-09-01T09:38:22.775Z,22.63
2022-09-01T09:39:27.956Z,22.69
2022-09-01T09:41:28.875Z,22.75
2022-09-01T09:42:36.863Z,22.75
2022-09-01T09:43:42.312Z,22.75
2022-09-01T09:45:24.135Z,22.75
2022-09-01T09:46:29.903Z,22.81
2022-09-01T09:47:42.652Z,22.88
2022-09-01T09:49:19.453Z,22.94
2022-09-01T09:50:46.058Z,22.94
2022-09-01T09:51:50.927Z,22.94
2022-09-01T09:53:29.518Z,23.00
2022-09-01T09:54:33.177Z,23.06
2022-09-01T09:55:36.608Z,23.06
2022-09-01T09:57:16.707Z,23.06
2022-09-01T09:58:19.957Z,23.13
2022-09-01T09:59:45.794Z,23.06
2022-09-01T10:00:11.986Z,23.13
2022-09-01T10:01:18.443Z,23.13
2022-09-01T10:02:23.387Z,23.13
2022-09-01T10:04:10.641Z,23.06
2022-09-01T10:05:14.414Z,23.06
2022-09-01T10:06:18.281Z,23.06
2022-09-01T10:07:58.145Z,23.06
2022-09-01T10:09:06.899Z,23.06
2022-09-01T10:10:10.189Z,23.13
2022-09-01T10:11:48.829Z,23.38
2022-09-01T10:12:53.687Z,23.44
2022-09-01T10:14:02.527Z,23.56
2022-09-01T10:16:21.924Z,23.56
2022-09-01T10:17:28.496Z,23.63
2022-09-01T10:19:04.755Z,23.63
2022-09-01T10:20:52.895Z,23.63
2022-09-01T10:21:56.571Z,23.63
2022-09-01T10:23:03.826Z,23.44
2022-09-01T10:25:14.273Z,23.31
2022-09-01T10:26:19.465Z,23.25
2022-09-01T10:27:22.990Z,23.38
2022-09-01T10:29:11.993Z,23.44
2022-09-01T10:30:47.507Z,23.56
2022-09-01T10:32:14.912Z,23.56
2022-09-01T10:34:42.103Z,23.63
2022-09-01T10:35:48.244Z,23.69
2022-09-01T10:36:56.941Z,23.69
2022-09-01T10:38:39.559Z,23.75
2022-09-01T10:40:20.610Z,23.81
2022-09-01T10:41:37.014Z,23.88
2022-09-01T10:43:27.001Z,24.00
2022-09-01T10:44:40.375Z,24.13
2022-09-01T10:45:56.066Z,24.19
2022-09-01T10:48:02.052Z,24.31
2022-09-01T10:49:31.352Z,24.38
2022-09-01T10:50:44.762Z,24.25
2022-09-01T10:52:50.571Z,24.06
2022-09-01T10:54:02.498Z,24.13
2022-09-01T10:55:13.623Z,24.19
2022-09-01T10:57:19.603Z,24.19
2022-09-01T11:00:34.774Z,24.50
2022-09-01T11:02:59.019Z,24.75
2022-09-01T11:04:45.394Z,24.88
2022-09-01T11:06:21.604Z,24.94
2022-09-01T11:08:36.577Z,24.94
2022-09-01T11:09:46.666Z,24.88
2022-09-01T11:11:56.502Z,24.75
2022-09-01T11:13:10.105Z,24.75
2022-09-01T11:14:13.756Z,24.81
2022-09-01T11:15:55.203Z,24.75
2022-09-01T11:17:33.004Z,24.69
2022-09-01T11:18:36.592Z,24.56
2022-09-01T11:20:13.758Z,24.56
2022-09-01T11:21:17.615Z,24.63
2022-09-01T11:22:26.499Z,24.63
2022-09-01T11:24:03.418Z,24.63
2022-09-01T11:25:12.085Z,24.56
2022-09-01T11:26:54.153Z,24.44
2022-09-01T11:28:29.883Z,24.38
2022-09-01T11:29:33.756Z,24.44
2022-09-01T11:30:39.300Z,24.44
2022-09-01T11:32:18.672Z,24.56
2022-09-01T11:33:27.659Z,24.63
2022-09-01T11:34:31.727Z,24.63
2022-09-01T11:36:08.167Z,24.69
2022-09-01T11:37:11.780Z,24.75
2022-09-01T11:38:20.683Z,25.00
2022-09-01T11:40:00.166Z,25.06
2022-09-01T11:41:07.628Z,25.31
2022-09-01T11:42:10.998Z,25.38
2022-09-01T11:44:02.324Z,25.56
2022-09-01T11:45:06.689Z,25.69
2022-09-01T11:46:18.736Z,25.69
2022-09-01T11:48:00.712Z,25.63
2022-09-01T11:49:04.191Z,25.50
2022-09-01T11:50:07.556Z,25.31
2022-09-01T11:51:49.949Z,25.13
2022-09-01T11:52:53.273Z,25.13
2022-09-01T11:54:03.074Z,25.19
2022-09-01T11:55:38.563Z,25.25
2022-09-01T11:56:41.970Z,25.19
2022-09-01T11:57:45.591Z,25.13
2022-09-01T11:59:24.848Z,25.00
2022-09-01T12:00:12.210Z,25.06
2022-09-01T12:01:15.191Z,25.13
2022-09-01T12:02:18.735Z,25.19
2022-09-01T12:03:56.691Z,25.25
2022-09-01T12:04:59.667Z,25.38
2022-09-01T12:06:02.722Z,25.56
2022-09-01T12:07:37.520Z,25.44
2022-09-01T12:08:40.529Z,25.50
2022-09-01T12:09:43.507Z,25.75
2022-09-01T12:11:18.317Z,25.75
2022-09-01T12:12:21.966Z,25.88
2022-09-01T12:13:24.995Z,25.88
2022-09-01T12:15:06.240Z,25.88
2022-09-01T12:16:18.326Z,25.81
2022-09-01T12:17:22.476Z,25.81
2022-09-01T12:18:57.527Z,25.94
2022-09-01T12:20:00.823Z,25.88
2022-09-01T12:21:09.404Z,25.88
2022-09-01T12:22:44.628Z,26.06
2022-09-01T12:23:47.941Z,26.00
2022-09-01T12:24:50.966Z,25.94
2022-09-01T12:26:25.938Z,25.63
2022-09-01T12:27:29.168Z,25.50
2022-09-01T12:28:32.338Z,25.44
2022-09-01T12:30:12.936Z,25.38
2022-09-01T12:31:16.303Z,25.38
2022-09-01T12:32:20.052Z,25.38
2022-09-01T12:34:11.882Z,25.25
2022-09-01T12:35:15.028Z,25.19
2022-09-01T12:36:17.899Z,25.19
2022-09-01T12:37:54.033Z,25.31
2022-09-01T12:39:01.906Z,25.50
2022-09-01T12:40:09.116Z,25.69
2022-09-01T12:41:45.205Z,26.13
2022-09-01T12:42:49.519Z,26.31
2022-09-01T12:43:54.776Z,26.38
2022-09-01T12:45:31.278Z,26.38
2022-09-01T12:46:34.665Z,26.56
2022-09-01T12:47:38.637Z,26.63
2022-09-01T12:49:16.617Z,26.63
2022-09-01T12:50:31.515Z,26.63
2022-09-01T12:51:36.978Z,26.69
2022-09-01T12:53:15.182Z,26.44
2022-09-01T12:54:23.272Z,26.31
2022-09-01T12:55:48.061Z,26.25
2022-09-01T12:57:23.156Z,26.25
2022-09-01T12:58:28.453Z,26.19
2022-09-01T12:59:36.418Z,26.19
2022-09-01T13:00:11.973Z,26.13
2022-09-01T13:01:16.414Z,26.13
2022-09-01T13:02:21.041Z,26.13
2022-09-01T13:03:57.513Z,26.06
2022-09-01T13:05:00.972Z,26.06
2022-09-01T13:06:17.421Z,26.06
2022-09-01T13:07:55.205Z,26.19
2022-09-01T13:08:59.609Z,26.56
2022-09-01T13:10:02.724Z,26.63
2022-09-01T13:12:06.982Z,26.69
2022-09-01T13:13:10.333Z,26.63
2022-09-01T13:14:13.806Z,26.56
2022-09-01T13:15:49.006Z,26.50
2022-09-01T13:16:52.611Z,26.44
2022-09-01T13:18:00.882Z,26.44
2022-09-01T13:20:08.313Z,26.44
2022-09-01T13:21:11.230Z,26.38
2022-09-01T13:22:14.315Z,26.31
2022-09-01T13:23:49.358Z,26.38
2022-09-01T13:24:53.593Z,26.44
2022-09-01T13:25:57.068Z,26.56
2022-09-01T13:28:07.515Z,26.63
2022-09-01T13:29:15.861Z,26.56
2022-09-01T13:30:18.687Z,26.50
2022-09-01T13:34:08.685Z,26.38
2022-09-01T13:35:22.025Z,26.31
2022-09-01T13:36:49.475Z,26.31
2022-09-01T13:38:26.838Z,26.38
2022-09-01T13:39:37.828Z,26.56
2022-09-01T13:40:42.532Z,26.69
2022-09-01T13:42:18.959Z,26.56
2022-09-01T13:43:26.551Z,26.50
2022-09-01T13:44:32.592Z,26.38
2022-09-01T13:46:14.679Z,26.25
2022-09-01T13:48:17.453Z,26.31
2022-09-01T13:51:16.798Z,26.25
2022-09-01T13:52:55.139Z,26.25
2022-09-01T13:53:58.615Z,26.25
2022-09-01T13:55:03.796Z,26.25
2022-09-01T13:56:39.123Z,26.25
2022-09-01T13:57:42.253Z,26.25
2022-09-01T13:58:47.786Z,26.25
2022-09-01T14:00:12.694Z,26.31
2022-09-01T14:01:15.971Z,26.38
2022-09-01T14:02:19.482Z,26.38
2022-09-01T14:03:59.655Z,26.50
2022-09-01T14:05:03.933Z,26.63
2022-09-01T14:06:07.272Z,26.63
2022-09-01T14:07:42.036Z,26.63
2022-09-01T14:08:45.043Z,26.56
2022-09-01T14:09:52.547Z,26.56
2022-09-01T14:11:27.603Z,26.44
2022-09-01T14:12:30.448Z,26.44
2022-09-01T14:13:34.055Z,26.31
2022-09-01T14:15:58.699Z,26.56
2022-09-01T14:17:03.583Z,26.75
2022-09-01T14:18:06.512Z,26.63
2022-09-01T14:19:41.487Z,26.69
2022-09-01T14:20:44.688Z,26.69
2022-09-01T14:21:47.630Z,26.69
2022-09-01T14:23:24.866Z,26.63
2022-09-01T14:24:27.960Z,26.63
2022-09-01T14:25:36.295Z,26.56
2022-09-01T14:27:14.269Z,26.63
2022-09-01T14:28:20.316Z,26.75
2022-09-01T14:29:23.855Z,26.88
2022-09-01T14:31:06.594Z,26.94
2022-09-01T14:32:09.408Z,26.94
2022-09-01T14:33:12.463Z,26.88
2022-09-01T14:34:47.081Z,26.88
2022-09-01T14:35:49.791Z,26.94
2022-09-01T14:36:55.897Z,27.06
2022-09-01T14:38:30.692Z,27.06
2022-09-01T14:39:33.685Z,27.13
2022-09-01T14:40:36.859Z,27.19
2022-09-01T14:42:13.265Z,27.25
2022-09-01T14:43:16.734Z,27.44
2022-09-01T14:44:19.544Z,27.38
2022-09-01T14:45:54.588Z,27.13
2022-09-01T14:46:57.976Z,27.00
2022-09-01T14:48:11.381Z,26.81
2022-09-01T14:49:46.519Z,26.44
2022-09-01T14:50:54.879Z,26.31
2022-09-01T14:52:12.145Z,26.19
2022-09-01T14:53:48.534Z,26.00
2022-09-01T14:54:51.424Z,25.88
2022-09-01T14:55:56.921Z,25.88
2022-09-01T14:58:18.722Z,25.81
2022-09-01T14:59:21.642Z,25.75
2022-09-01T15:00:12.335Z,25.75
2022-09-01T15:01:33.092Z,25.75
2022-09-01T15:02:37.470Z,25.75
2022-09-01T15:04:13.019Z,25.94
2022-09-01T15:05:16.405Z,26.00
2022-09-01T15:06:26.356Z,26.06
2022-09-01T15:08:02.679Z,26.31
2022-09-01T15:09:18.486Z,26.38
2022-09-01T15:10:25.156Z,26.31
2022-09-01T15:12:00.464Z,26.19
2022-09-01T15:13:03.337Z,26.19
2022-09-01T15:14:06.273Z,26.19
2022-09-01T15:15:41.522Z,26.31
2022-09-01T15:16:45.236Z,26.38
2022-09-01T15:17:48.140Z,26.44
2022-09-01T15:19:23.137Z,26.63
2022-09-01T15:20:28.135Z,26.63
2022-09-01T15:21:31.080Z,26.63
2022-09-01T15:23:06.108Z,26.44
2022-09-01T15:24:08.933Z,26.31
2022-09-01T15:25:11.994Z,26.25
2022-09-01T15:26:46.949Z,26.38
2022-09-01T15:27:49.818Z,26.44
2022-09-01T15:28:52.696Z,26.50
2022-09-01T15:30:28.353Z,26.63
2022-09-01T15:31:35.324Z,26.69
2022-09-01T15:32:38.612Z,26.50
2022-09-01T15:34:13.544Z,26.44
2022-09-01T15:35:16.302Z,26.44
2022-09-01T15:36:19.281Z,26.44
2022-09-01T15:37:54.243Z,26.44
2022-09-01T15:39:10.434Z,26.31
2022-09-01T15:40:24.185Z,26.19
2022-09-01T15:42:10.653Z,26.00
2022-09-01T15:43:13.873Z,25.94
2022-09-01T15:44:18.857Z,25.69
2022-09-01T15:45:54.552Z,25.63
2022-09-01T15:46:58.101Z,25.56
2022-09-01T15:48:01.127Z,25.50
2022-09-01T15:49:36.463Z,25.38
2022-09-01T15:50:42.215Z,25.38
2022-09-01T15:51:45.167Z,25.38
2022-09-01T15:53:19.795Z,25.50
2022-09-01T15:54:27.073Z,25.50
2022-09-01T15:55:32.641Z,25.56
2022-09-01T15:57:09.053Z,25.63
2022-09-01T15:58:14.814Z,25.63
2022-09-01T15:59:47.953Z,25.50
2022-09-01T16:00:12.042Z,25.50
2022-09-01T16:01:16.629Z,25.38
2022-09-01T16:02:20.528Z,25.38
2022-09-01T16:03:56.220Z,25.38
2022-09-01T16:05:41.459Z,25.31
2022-09-01T16:06:44.522Z,25.38
2022-09-01T16:07:47.880Z,25.38
2022-09-01T16:09:23.725Z,25.38
2022-09-01T16:10:26.977Z,25.38
2022-09-01T16:11:34.395Z,25.44
2022-09-01T16:13:09.490Z,25.38
2022-09-01T16:14:12.531Z,25.38
2022-09-01T16:15:15.591Z,25.38
2022-09-01T16:16:51.341Z,25.38
2022-09-01T16:17:54.440Z,25.38
2022-09-01T16:18:57.837Z,25.38
2022-09-01T16:20:33.194Z,25.44
2022-09-01T16:21:36.467Z,25.44
2022-09-01T16:22:39.581Z,25.50
2022-09-01T16:24:14.585Z,25.56
2022-09-01T16:25:17.813Z,25.50
2022-09-01T16:26:21.096Z,25.50
2022-09-01T16:27:59.762Z,25.50
2022-09-01T16:29:04.673Z,25.50
2022-09-01T16:30:10.028Z,25.56
2022-09-01T16:31:46.170Z,25.63
2022-09-01T16:32:49.452Z,25.63
2022-09-01T16:33:52.801Z,25.69
2022-09-01T16:35:31.761Z,25.63
2022-09-01T16:36:35.809Z,25.50
2022-09-01T16:37:39.124Z,25.44
2022-09-01T16:39:14.465Z,25.38
2022-09-01T16:40:17.809Z,25.38
2022-09-01T16:41:22.422Z,25.31
2022-09-01T16:42:58.237Z,25.31
2022-09-01T16:44:02.533Z,25.38
2022-09-01T16:45:06.885Z,25.38
2022-09-01T16:46:50.713Z,25.44
2022-09-01T16:47:54.174Z,25.38
2022-09-01T16:48:57.609Z,25.31
2022-09-01T16:50:33.138Z,25.31
2022-09-01T16:51:41.683Z,25.19
2022-09-01T16:52:45.076Z,25.19
2022-09-01T16:54:20.357Z,25.19
2022-09-01T16:55:23.744Z,25.19
2022-09-01T16:56:27.228Z,25.19
2022-09-01T16:58:02.804Z,25.19
2022-09-01T16:59:10.974Z,25.19
2022-09-01T17:00:12.019Z,25.13
2022-09-01T17:01:16.801Z,25.06
2022-09-01T17:02:20.700Z,25.00
2022-09-01T17:04:18.768Z,24.81
2022-09-01T17:05:22.652Z,24.75
2022-09-01T17:06:26.002Z,24.69
2022-09-01T17:08:05.110Z,24.56
2022-09-01T17:09:08.905Z,24.50
2022-09-01T17:10:12.334Z,24.44
2022-09-01T17:11:49.639Z,24.44
2022-09-01T17:12:53.163Z,24.38
2022-09-01T17:13:56.845Z,24.31
2022-09-01T17:15:32.285Z,24.25
2022-09-01T17:16:36.705Z,24.19
2022-09-01T17:17:42.293Z,24.13
2022-09-01T17:19:36.135Z,24.00
2022-09-01T17:20:39.465Z,24.00
2022-09-01T17:21:56.065Z,24.00
2022-09-01T17:23:31.763Z,23.94
2022-09-01T17:24:35.259Z,23.88
2022-09-01T17:25:39.818Z,23.88
2022-09-01T17:27:15.821Z,23.88
2022-09-01T17:28:19.160Z,23.81
2022-09-01T17:29:22.607Z,23.81
2022-09-01T17:30:58.356Z,23.81
2022-09-01T17:32:02.179Z,23.81
2022-09-01T17:33:05.941Z,23.75
2022-09-01T17:34:53.241Z,23.69